الصفحة الرئيسية
METAR-TAF:

METAR-TAF

مطار :

بانغي, جمهورية أفريقيا الوسطى

دائرة عرض: 04-24N, خط طول: 018-31E, ارتفاع: 365 متر

مراقبة الطقس الحالي

تاريخ ووقت الإصدار 27 دقيقة قبل الساعة 07:00UTC
ريح 5 عقدة من الغرب
درجة الحرارة 24°درجة مئوية
الرطوبة 78%
ضغط 1015 hPa
الرؤية 10 كم أو أكثر
غيوم متفرقة على ارتفاع 1000 قدم

METAR: FEFF 240700Z 27005KT 9999 SCT010 24/20 Q1015 NOSIG

زمن: 08:27 (07:27 UTC)

توقعات

تاريخ ووقت الإصدار 2ساعات و 27 دقيقة قبل الساعة 05:00UTC
التوقعات صالحة من24 الساعة 06 UTC إلى 25 الساعة 12 UTC
ريح 8 عقدة من الجنوب الغربي
الرؤية: 8000 متر
غيوم متفرقة على ارتفاع 1000 قدم
غيوم قليلة على ارتفاع 3300 قدم, مزنة ركامية.
مؤقت
بين TS و UTC
أصبح
من 24 الساعة 09 UTC إلى 24 الساعة 12 UTC
غيوم مفككة على ارتفاع 2300 قدم
مؤقت
من 24 الساعة 13 UTC إلى 24 الساعة 16 UTC
ريح 15 عقدة من الشرق/الشمال الشرقي
الرؤية: 4000 متر
غيوم مفككة على ارتفاع 1300 قدم
غيوم قليلة على ارتفاع 4000 قدم, مزنة ركامية.
عاصفة رعدية, مطر

TAF: FEFF 240500Z 2406/2512 22008KT 8000 SCT010 FEW033CB TEMPO TS BECMG 2409/2412 BKN023 TEMPO 2413/2416 06015KT 4000 TSRA BKN013 FEW040CB

أرصاد الطقس والتوقعات من أكثر من 4000 مطار (تقارير الطقس للمطار METAR والتنبؤ بالطقس بالمطارTAF).

المحطات المتاحة هي النقط الصفراء والحمراء على الخريطة.

حرك المؤشر فوق النقطة لمعرفة اسم المحطة.

ثم انقر لمعرفة أرصاد وتوقعات الطقس.

لتغيير الخارطة: اضغط على الأزرار الخضراء مع رمز الصليب الأسود للتكبير. على الزر الأخضر مع شرطة للتصغير، أو على الأسهم الخضراء للخرائط المجاورة.


METAR-TAF: